Loleta, California
Current Conditions -  °F | °C
As of 10:10 PM on Saturday 25 Oct 2014 (Local Time) from KFOT Reporting Station
Overcast Overcast  
Wind Chill: 52°   Ceiling: 100
Heat Index: 52°   Visibility: 0mi
Dew Point: 52°   Wind: 7mph
Humidity: 100%   Direction: 120°ESE
Pressure: 30.12"   Gusts: NA
Location:  40.64°N, 124.23°W
Report Text: KFOT 260510Z AUTO 12006KT M1/4SM OVC001 11/11 A3012 RMK AO1
Loading
Personal Weather Stations






























Interactive Weather Map
Tropical Storm Tracking
New forecast layout! Learn more

10-Day Weather Forecast

Advertisements
Track Severe Weather on mobile